sensor_id;sensor_type;location;lat;lon;timestamp;P1;durP1;ratioP1;P2;durP2;ratioP2
42742;SDS011;28397;44.552;-0.848;2022-07-12T00:02:04;1.20;;;1.10;;
42742;SDS011;28397;44.552;-0.848;2022-07-12T00:04:30;2.38;;;1.20;;
42742;SDS011;28397;44.552;-0.848;2022-07-12T00:06:57;2.13;;;1.10;;
42742;SDS011;28397;44.552;-0.848;2022-07-12T00:09:23;1.55;;;1.00;;
42742;SDS011;28397;44.552;-0.848;2022-07-12T00:11:49;1.58;;;0.98;;
42742;SDS011;28397;44.552;-0.848;2022-07-12T00:14:15;1.42;;;1.23;;
42742;SDS011;28397;44.552;-0.848;2022-07-12T00:16:41;1.65;;;1.02;;
42742;SDS011;28397;44.552;-0.848;2022-07-12T00:19:07;2.53;;;1.10;;
42742;SDS011;28397;44.552;-0.848;2022-07-12T00:21:33;2.47;;;1.00;;
42742;SDS011;28397;44.552;-0.848;2022-07-12T00:24:00;1.48;;;1.20;;
42742;SDS011;28397;44.552;-0.848;2022-07-12T00:26:26;2.55;;;1.02;;
42742;SDS011;28397;44.552;-0.848;2022-07-12T00:28:52;2.03;;;1.20;;
42742;SDS011;28397;44.552;-0.848;2022-07-12T00:31:18;1.80;;;1.00;;
42742;SDS011;28397;44.552;-0.848;2022-07-12T00:33:45;1.13;;;1.00;;
42742;SDS011;28397;44.552;-0.848;2022-07-12T00:36:11;3.28;;;1.40;;
42742;SDS011;28397;44.552;-0.848;2022-07-12T00:38:37;2.42;;;1.20;;
42742;SDS011;28397;44.552;-0.848;2022-07-12T00:41:03;1.60;;;1.10;;
42742;SDS011;28397;44.552;-0.848;2022-07-12T00:43:29;2.00;;;1.20;;
42742;SDS011;28397;44.552;-0.848;2022-07-12T00:45:56;1.60;;;1.00;;
42742;SDS011;28397;44.552;-0.848;2022-07-12T00:48:22;2.40;;;1.10;;
42742;SDS011;28397;44.552;-0.848;2022-07-12T00:50:48;1.85;;;1.08;;
42742;SDS011;28397;44.552;-0.848;2022-07-12T00:53:14;1.77;;;1.05;;
42742;SDS011;28397;44.552;-0.848;2022-07-12T00:55:43;3.33;;;1.10;;
42742;SDS011;28397;44.552;-0.848;2022-07-12T00:58:09;2.50;;;1.17;;
42742;SDS011;28397;44.552;-0.848;2022-07-12T01:00:35;1.20;;;1.10;;
42742;SDS011;28397;44.552;-0.848;2022-07-12T01:03:02;1.48;;;1.10;;
42742;SDS011;28397;44.552;-0.848;2022-07-12T01:05:29;1.13;;;1.00;;
42742;SDS011;28397;44.552;-0.848;2022-07-12T01:07:55;2.50;;;1.10;;
42742;SDS011;28397;44.552;-0.848;2022-07-12T01:10:21;1.70;;;1.15;;
42742;SDS011;28397;44.552;-0.848;2022-07-12T01:12:48;1.75;;;1.20;;
42742;SDS011;28397;44.552;-0.848;2022-07-12T01:15:14;1.83;;;1.20;;
42742;SDS011;28397;44.552;-0.848;2022-07-12T01:17:41;2.33;;;1.02;;
42742;SDS011;28397;44.552;-0.848;2022-07-12T01:20:09;1.20;;;1.10;;
42742;SDS011;28397;44.552;-0.848;2022-07-12T01:22:36;3.50;;;1.23;;
42742;SDS011;28397;44.552;-0.848;2022-07-12T01:25:03;3.85;;;1.23;;
42742;SDS011;28397;44.552;-0.848;2022-07-12T01:27:30;2.35;;;1.20;;
42742;SDS011;28397;44.552;-0.848;2022-07-12T01:29:56;4.07;;;1.20;;
42742;SDS011;28397;44.552;-0.848;2022-07-12T01:32:22;1.67;;;1.08;;
42742;SDS011;28397;44.552;-0.848;2022-07-12T01:34:52;4.30;;;1.08;;
42742;SDS011;28397;44.552;-0.848;2022-07-12T01:37:19;1.75;;;1.27;;
42742;SDS011;28397;44.552;-0.848;2022-07-12T01:39:46;1.35;;;1.17;;
42742;SDS011;28397;44.552;-0.848;2022-07-12T01:42:14;2.05;;;1.00;;
42742;SDS011;28397;44.552;-0.848;2022-07-12T01:44:41;1.88;;;1.20;;
42742;SDS011;28397;44.552;-0.848;2022-07-12T01:47:07;2.22;;;1.30;;
42742;SDS011;28397;44.552;-0.848;2022-07-12T01:49:33;1.20;;;1.10;;
42742;SDS011;28397;44.552;-0.848;2022-07-12T01:51:59;2.67;;;1.30;;
42742;SDS011;28397;44.552;-0.848;2022-07-12T01:54:25;2.50;;;1.30;;
42742;SDS011;28397;44.552;-0.848;2022-07-12T01:56:51;2.88;;;1.02;;
42742;SDS011;28397;44.552;-0.848;2022-07-12T01:59:18;1.50;;;1.10;;
42742;SDS011;28397;44.552;-0.848;2022-07-12T02:01:45;2.70;;;1.00;;
42742;SDS011;28397;44.552;-0.848;2022-07-12T02:04:11;2.90;;;1.30;;
42742;SDS011;28397;44.552;-0.848;2022-07-12T02:06:37;1.17;;;0.98;;
42742;SDS011;28397;44.552;-0.848;2022-07-12T02:09:03;3.00;;;1.30;;
42742;SDS011;28397;44.552;-0.848;2022-07-12T02:11:30;1.88;;;1.30;;
42742;SDS011;28397;44.552;-0.848;2022-07-12T02:13:56;1.23;;;1.13;;
42742;SDS011;28397;44.552;-0.848;2022-07-12T02:16:22;2.33;;;1.13;;
42742;SDS011;28397;44.552;-0.848;2022-07-12T02:18:48;1.77;;;1.10;;
42742;SDS011;28397;44.552;-0.848;2022-07-12T02:21:14;3.50;;;1.27;;
42742;SDS011;28397;44.552;-0.848;2022-07-12T02:23:40;1.42;;;1.05;;
42742;SDS011;28397;44.552;-0.848;2022-07-12T02:26:06;1.90;;;1.30;;
42742;SDS011;28397;44.552;-0.848;2022-07-12T02:28:33;1.92;;;1.20;;
42742;SDS011;28397;44.552;-0.848;2022-07-12T02:30:59;1.38;;;1.00;;
42742;SDS011;28397;44.552;-0.848;2022-07-12T02:33:25;2.45;;;1.20;;
42742;SDS011;28397;44.552;-0.848;2022-07-12T02:35:51;3.22;;;1.20;;
42742;SDS011;28397;44.552;-0.848;2022-07-12T02:38:17;2.63;;;1.10;;
42742;SDS011;28397;44.552;-0.848;2022-07-12T02:40:45;3.42;;;1.20;;
42742;SDS011;28397;44.552;-0.848;2022-07-12T02:43:23;2.08;;;1.33;;
42742;SDS011;28397;44.552;-0.848;2022-07-12T02:45:50;2.72;;;1.17;;
42742;SDS011;28397;44.552;-0.848;2022-07-12T02:48:16;1.73;;;1.20;;
42742;SDS011;28397;44.552;-0.848;2022-07-12T02:50:42;2.60;;;1.15;;
42742;SDS011;28397;44.552;-0.848;2022-07-12T02:53:09;2.35;;;1.35;;
42742;SDS011;28397;44.552;-0.848;2022-07-12T02:55:35;2.97;;;1.30;;
42742;SDS011;28397;44.552;-0.848;2022-07-12T02:58:01;2.90;;;1.40;;
42742;SDS011;28397;44.552;-0.848;2022-07-12T03:00:28;3.78;;;1.27;;
42742;SDS011;28397;44.552;-0.848;2022-07-12T03:02:54;2.15;;;1.17;;
42742;SDS011;28397;44.552;-0.848;2022-07-12T03:05:20;3.67;;;1.10;;
42742;SDS011;28397;44.552;-0.848;2022-07-12T03:07:46;3.20;;;1.23;;
42742;SDS011;28397;44.552;-0.848;2022-07-12T03:10:12;1.90;;;1.23;;
42742;SDS011;28397;44.552;-0.848;2022-07-12T03:12:38;2.42;;;1.40;;
42742;SDS011;28397;44.552;-0.848;2022-07-12T03:15:05;2.13;;;1.30;;
42742;SDS011;28397;44.552;-0.848;2022-07-12T03:17:32;1.92;;;1.20;;
42742;SDS011;28397;44.552;-0.848;2022-07-12T03:19:58;2.72;;;1.10;;
42742;SDS011;28397;44.552;-0.848;2022-07-12T03:22:24;3.80;;;1.20;;
42742;SDS011;28397;44.552;-0.848;2022-07-12T03:24:50;1.50;;;1.10;;
42742;SDS011;28397;44.552;-0.848;2022-07-12T03:27:17;2.30;;;1.40;;
42742;SDS011;28397;44.552;-0.848;2022-07-12T03:29:43;1.83;;;1.20;;
42742;SDS011;28397;44.552;-0.848;2022-07-12T03:32:09;2.03;;;1.20;;
42742;SDS011;28397;44.552;-0.848;2022-07-12T03:34:35;1.85;;;1.25;;
42742;SDS011;28397;44.552;-0.848;2022-07-12T03:37:02;1.52;;;1.15;;
42742;SDS011;28397;44.552;-0.848;2022-07-12T03:39:28;2.17;;;1.40;;
42742;SDS011;28397;44.552;-0.848;2022-07-12T03:41:54;2.75;;;1.15;;
42742;SDS011;28397;44.552;-0.848;2022-07-12T03:44:20;2.97;;;1.13;;
42742;SDS011;28397;44.552;-0.848;2022-07-12T03:46:46;1.65;;;1.17;;
42742;SDS011;28397;44.552;-0.848;2022-07-12T03:49:12;1.35;;;1.20;;
42742;SDS011;28397;44.552;-0.848;2022-07-12T03:51:39;3.47;;;1.20;;
42742;SDS011;28397;44.552;-0.848;2022-07-12T03:54:05;4.30;;;1.20;;
42742;SDS011;28397;44.552;-0.848;2022-07-12T03:56:33;2.90;;;1.15;;
42742;SDS011;28397;44.552;-0.848;2022-07-12T03:59:17;2.13;;;1.30;;
42742;SDS011;28397;44.552;-0.848;2022-07-12T04:01:43;1.70;;;1.20;;
42742;SDS011;28397;44.552;-0.848;2022-07-12T04:04:09;2.65;;;1.33;;
42742;SDS011;28397;44.552;-0.848;2022-07-12T04:06:35;2.22;;;1.40;;
42742;SDS011;28397;44.552;-0.848;2022-07-12T04:09:02;1.30;;;1.20;;
42742;SDS011;28397;44.552;-0.848;2022-07-12T04:11:29;2.58;;;1.20;;
42742;SDS011;28397;44.552;-0.848;2022-07-12T04:13:55;1.92;;;1.20;;
42742;SDS011;28397;44.552;-0.848;2022-07-12T04:16:21;2.67;;;1.25;;
42742;SDS011;28397;44.552;-0.848;2022-07-12T04:18:47;2.75;;;1.50;;
42742;SDS011;28397;44.552;-0.848;2022-07-12T04:21:13;1.65;;;1.20;;
42742;SDS011;28397;44.552;-0.848;2022-07-12T04:23:39;3.55;;;1.52;;
42742;SDS011;28397;44.552;-0.848;2022-07-12T04:26:05;2.72;;;1.40;;
42742;SDS011;28397;44.552;-0.848;2022-07-12T04:28:31;2.17;;;1.30;;
42742;SDS011;28397;44.552;-0.848;2022-07-12T04:30:57;3.28;;;1.40;;
42742;SDS011;28397;44.552;-0.848;2022-07-12T04:33:23;1.33;;;1.20;;
42742;SDS011;28397;44.552;-0.848;2022-07-12T04:35:49;2.40;;;1.27;;
42742;SDS011;28397;44.552;-0.848;2022-07-12T04:38:15;4.00;;;1.30;;
42742;SDS011;28397;44.552;-0.848;2022-07-12T04:40:41;1.15;;;1.05;;
42742;SDS011;28397;44.552;-0.848;2022-07-12T04:43:07;1.58;;;1.10;;
42742;SDS011;28397;44.552;-0.848;2022-07-12T04:45:33;2.28;;;1.30;;
42742;SDS011;28397;44.552;-0.848;2022-07-12T04:47:59;2.95;;;1.45;;
42742;SDS011;28397;44.552;-0.848;2022-07-12T04:50:26;2.17;;;1.48;;
42742;SDS011;28397;44.552;-0.848;2022-07-12T04:52:52;2.78;;;1.38;;
42742;SDS011;28397;44.552;-0.848;2022-07-12T04:55:18;2.17;;;1.10;;
42742;SDS011;28397;44.552;-0.848;2022-07-12T04:57:44;1.48;;;1.30;;
42742;SDS011;28397;44.552;-0.848;2022-07-12T05:00:10;1.65;;;1.50;;
42742;SDS011;28397;44.552;-0.848;2022-07-12T05:02:36;3.42;;;1.60;;
42742;SDS011;28397;44.552;-0.848;2022-07-12T05:05:02;4.32;;;1.90;;
42742;SDS011;28397;44.552;-0.848;2022-07-12T05:07:29;3.25;;;1.75;;
42742;SDS011;28397;44.552;-0.848;2022-07-12T05:09:56;4.07;;;1.77;;
42742;SDS011;28397;44.552;-0.848;2022-07-12T05:12:22;4.80;;;1.63;;
42742;SDS011;28397;44.552;-0.848;2022-07-12T05:14:48;6.75;;;1.70;;
42742;SDS011;28397;44.552;-0.848;2022-07-12T05:17:14;3.33;;;1.48;;
42742;SDS011;28397;44.552;-0.848;2022-07-12T05:19:40;5.18;;;1.67;;
42742;SDS011;28397;44.552;-0.848;2022-07-12T05:22:06;5.20;;;1.80;;
42742;SDS011;28397;44.552;-0.848;2022-07-12T05:24:32;7.15;;;1.83;;
42742;SDS011;28397;44.552;-0.848;2022-07-12T05:26:58;4.07;;;1.70;;
42742;SDS011;28397;44.552;-0.848;2022-07-12T05:29:25;4.03;;;1.60;;
42742;SDS011;28397;44.552;-0.848;2022-07-12T05:31:54;4.22;;;1.70;;
42742;SDS011;28397;44.552;-0.848;2022-07-12T05:34:20;2.88;;;1.42;;
42742;SDS011;28397;44.552;-0.848;2022-07-12T05:36:46;4.32;;;1.75;;
42742;SDS011;28397;44.552;-0.848;2022-07-12T05:39:12;3.65;;;1.73;;
42742;SDS011;28397;44.552;-0.848;2022-07-12T05:41:38;5.78;;;1.90;;
42742;SDS011;28397;44.552;-0.848;2022-07-12T05:44:04;3.05;;;1.67;;
42742;SDS011;28397;44.552;-0.848;2022-07-12T05:46:30;3.95;;;1.52;;
42742;SDS011;28397;44.552;-0.848;2022-07-12T05:48:57;3.03;;;1.60;;
42742;SDS011;28397;44.552;-0.848;2022-07-12T05:51:23;3.38;;;1.90;;
42742;SDS011;28397;44.552;-0.848;2022-07-12T05:54:08;4.95;;;1.75;;
42742;SDS011;28397;44.552;-0.848;2022-07-12T05:56:35;6.88;;;1.70;;
42742;SDS011;28397;44.552;-0.848;2022-07-12T05:59:01;6.50;;;1.90;;
42742;SDS011;28397;44.552;-0.848;2022-07-12T06:01:27;7.57;;;1.70;;
42742;SDS011;28397;44.552;-0.848;2022-07-12T06:03:53;4.53;;;1.50;;
42742;SDS011;28397;44.552;-0.848;2022-07-12T06:06:19;2.80;;;1.55;;
42742;SDS011;28397;44.552;-0.848;2022-07-12T06:08:45;5.45;;;1.67;;
42742;SDS011;28397;44.552;-0.848;2022-07-12T06:11:12;4.68;;;1.30;;
42742;SDS011;28397;44.552;-0.848;2022-07-12T06:13:38;6.15;;;1.40;;
42742;SDS011;28397;44.552;-0.848;2022-07-12T06:16:04;4.88;;;1.50;;
42742;SDS011;28397;44.552;-0.848;2022-07-12T06:18:31;3.97;;;1.10;;
42742;SDS011;28397;44.552;-0.848;2022-07-12T06:20:57;3.30;;;1.10;;
42742;SDS011;28397;44.552;-0.848;2022-07-12T06:23:23;2.72;;;1.15;;
42742;SDS011;28397;44.552;-0.848;2022-07-12T06:25:49;2.53;;;1.10;;
42742;SDS011;28397;44.552;-0.848;2022-07-12T06:28:15;1.13;;;0.90;;
42742;SDS011;28397;44.552;-0.848;2022-07-12T06:30:41;3.55;;;1.20;;
42742;SDS011;28397;44.552;-0.848;2022-07-12T06:33:07;3.03;;;1.00;;
42742;SDS011;28397;44.552;-0.848;2022-07-12T06:35:34;5.43;;;1.20;;
42742;SDS011;28397;44.552;-0.848;2022-07-12T06:38:00;1.17;;;1.08;;
42742;SDS011;28397;44.552;-0.848;2022-07-12T06:40:26;4.13;;;1.10;;
42742;SDS011;28397;44.552;-0.848;2022-07-12T06:42:52;2.05;;;1.00;;
42742;SDS011;28397;44.552;-0.848;2022-07-12T06:45:18;2.38;;;0.90;;
42742;SDS011;28397;44.552;-0.848;2022-07-12T06:47:44;2.35;;;1.00;;
42742;SDS011;28397;44.552;-0.848;2022-07-12T06:50:10;3.03;;;1.20;;
42742;SDS011;28397;44.552;-0.848;2022-07-12T06:52:36;1.25;;;1.05;;
42742;SDS011;28397;44.552;-0.848;2022-07-12T06:55:03;2.90;;;1.00;;
42742;SDS011;28397;44.552;-0.848;2022-07-12T06:57:29;2.60;;;1.00;;
42742;SDS011;28397;44.552;-0.848;2022-07-12T06:59:55;3.70;;;1.23;;
42742;SDS011;28397;44.552;-0.848;2022-07-12T07:02:22;1.40;;;0.90;;
42742;SDS011;28397;44.552;-0.848;2022-07-12T07:04:48;2.55;;;1.10;;
42742;SDS011;28397;44.552;-0.848;2022-07-12T07:07:14;2.65;;;1.00;;
42742;SDS011;28397;44.552;-0.848;2022-07-12T07:09:40;2.05;;;1.05;;
42742;SDS011;28397;44.552;-0.848;2022-07-12T07:12:06;3.08;;;1.00;;
42742;SDS011;28397;44.552;-0.848;2022-07-12T07:14:33;3.72;;;1.00;;
42742;SDS011;28397;44.552;-0.848;2022-07-12T07:16:59;3.08;;;1.20;;
42742;SDS011;28397;44.552;-0.848;2022-07-12T07:19:25;1.88;;;1.13;;
42742;SDS011;28397;44.552;-0.848;2022-07-12T07:21:54;3.20;;;1.00;;
42742;SDS011;28397;44.552;-0.848;2022-07-12T07:24:21;2.65;;;1.10;;
42742;SDS011;28397;44.552;-0.848;2022-07-12T07:26:47;2.65;;;0.90;;
42742;SDS011;28397;44.552;-0.848;2022-07-12T07:29:14;2.28;;;1.13;;
42742;SDS011;28397;44.552;-0.848;2022-07-12T07:31:59;4.85;;;1.20;;
42742;SDS011;28397;44.552;-0.848;2022-07-12T07:34:25;2.17;;;1.13;;
42742;SDS011;28397;44.552;-0.848;2022-07-12T07:36:51;5.57;;;1.25;;
42742;SDS011;28397;44.552;-0.848;2022-07-12T07:39:17;3.13;;;1.13;;
42742;SDS011;28397;44.552;-0.848;2022-07-12T07:41:44;2.35;;;1.10;;
42742;SDS011;28397;44.552;-0.848;2022-07-12T07:44:10;4.25;;;1.20;;
42742;SDS011;28397;44.552;-0.848;2022-07-12T07:46:36;3.35;;;1.30;;
42742;SDS011;28397;44.552;-0.848;2022-07-12T07:49:02;4.10;;;1.27;;
42742;SDS011;28397;44.552;-0.848;2022-07-12T07:51:28;9.27;;;1.23;;
42742;SDS011;28397;44.552;-0.848;2022-07-12T07:53:54;2.63;;;1.10;;
42742;SDS011;28397;44.552;-0.848;2022-07-12T07:56:20;3.42;;;1.30;;
42742;SDS011;28397;44.552;-0.848;2022-07-12T07:58:46;3.33;;;1.27;;
42742;SDS011;28397;44.552;-0.848;2022-07-12T08:01:12;2.22;;;1.20;;
42742;SDS011;28397;44.552;-0.848;2022-07-12T08:03:39;2.75;;;1.30;;
42742;SDS011;28397;44.552;-0.848;2022-07-12T08:06:05;2.13;;;1.10;;
42742;SDS011;28397;44.552;-0.848;2022-07-12T08:08:31;1.85;;;1.20;;
42742;SDS011;28397;44.552;-0.848;2022-07-12T08:10:57;2.45;;;1.20;;
42742;SDS011;28397;44.552;-0.848;2022-07-12T08:13:23;4.50;;;1.13;;
42742;SDS011;28397;44.552;-0.848;2022-07-12T08:15:49;1.55;;;1.00;;
42742;SDS011;28397;44.552;-0.848;2022-07-12T08:18:15;1.95;;;1.10;;
42742;SDS011;28397;44.552;-0.848;2022-07-12T08:20:41;1.65;;;1.20;;
42742;SDS011;28397;44.552;-0.848;2022-07-12T08:23:08;2.53;;;1.20;;
42742;SDS011;28397;44.552;-0.848;2022-07-12T08:25:34;2.55;;;1.15;;
42742;SDS011;28397;44.552;-0.848;2022-07-12T08:28:00;4.30;;;1.35;;
42742;SDS011;28397;44.552;-0.848;2022-07-12T08:30:26;3.42;;;1.10;;
42742;SDS011;28397;44.552;-0.848;2022-07-12T08:32:52;2.30;;;1.15;;
42742;SDS011;28397;44.552;-0.848;2022-07-12T08:35:20;1.90;;;1.40;;
42742;SDS011;28397;44.552;-0.848;2022-07-12T08:37:46;4.03;;;1.17;;
42742;SDS011;28397;44.552;-0.848;2022-07-12T08:40:12;5.05;;;1.23;;
42742;SDS011;28397;44.552;-0.848;2022-07-12T08:42:41;2.85;;;1.30;;
42742;SDS011;28397;44.552;-0.848;2022-07-12T08:45:08;4.35;;;1.40;;
42742;SDS011;28397;44.552;-0.848;2022-07-12T08:47:34;3.42;;;1.30;;
42742;SDS011;28397;44.552;-0.848;2022-07-12T08:50:16;3.50;;;1.27;;
42742;SDS011;28397;44.552;-0.848;2022-07-12T08:52:44;1.92;;;1.38;;
42742;SDS011;28397;44.552;-0.848;2022-07-12T08:55:30;5.25;;;1.40;;
42742;SDS011;28397;44.552;-0.848;2022-07-12T08:57:58;1.30;;;1.20;;
42742;SDS011;28397;44.552;-0.848;2022-07-12T09:00:25;1.50;;;1.23;;
42742;SDS011;28397;44.552;-0.848;2022-07-12T09:02:52;3.83;;;1.30;;
42742;SDS011;28397;44.552;-0.848;2022-07-12T09:05:19;5.05;;;1.27;;
42742;SDS011;28397;44.552;-0.848;2022-07-12T09:07:46;2.50;;;1.10;;
42742;SDS011;28397;44.552;-0.848;2022-07-12T09:10:13;4.10;;;1.30;;
42742;SDS011;28397;44.552;-0.848;2022-07-12T09:12:39;3.38;;;1.33;;
42742;SDS011;28397;44.552;-0.848;2022-07-12T09:15:15;2.85;;;1.20;;
42742;SDS011;28397;44.552;-0.848;2022-07-12T09:20:15;3.60;;;1.30;;
42742;SDS011;28397;44.552;-0.848;2022-07-12T09:22:50;1.70;;;1.20;;
42742;SDS011;28397;44.552;-0.848;2022-07-12T09:25:17;2.15;;;1.15;;
42742;SDS011;28397;44.552;-0.848;2022-07-12T09:28:25;2.53;;;1.40;;
42742;SDS011;28397;44.552;-0.848;2022-07-12T09:30:32;1.77;;;1.20;;
42742;SDS011;28397;44.552;-0.848;2022-07-12T09:33:06;4.35;;;1.30;;
42742;SDS011;28397;44.552;-0.848;2022-07-12T09:38:35;5.97;;;1.20;;
42742;SDS011;28397;44.552;-0.848;2022-07-12T09:41:02;2.70;;;1.15;;
42742;SDS011;28397;44.552;-0.848;2022-07-12T09:43:28;2.55;;;1.35;;
42742;SDS011;28397;44.552;-0.848;2022-07-12T09:45:55;4.45;;;1.40;;
42742;SDS011;28397;44.552;-0.848;2022-07-12T09:48:21;3.35;;;1.30;;
42742;SDS011;28397;44.552;-0.848;2022-07-12T09:50:49;3.53;;;1.30;;
42742;SDS011;28397;44.552;-0.848;2022-07-12T09:53:22;4.25;;;1.50;;
42742;SDS011;28397;44.552;-0.848;2022-07-12T09:55:52;1.75;;;1.20;;
42742;SDS011;28397;44.552;-0.848;2022-07-12T09:58:24;2.65;;;1.10;;
42742;SDS011;28397;44.552;-0.848;2022-07-12T10:00:52;1.55;;;0.90;;
42742;SDS011;28397;44.552;-0.848;2022-07-12T10:03:21;3.22;;;1.20;;
42742;SDS011;28397;44.552;-0.848;2022-07-12T10:05:49;5.00;;;1.13;;
42742;SDS011;28397;44.552;-0.848;2022-07-12T10:08:17;4.80;;;1.20;;
42742;SDS011;28397;44.552;-0.848;2022-07-12T10:10:43;3.92;;;1.10;;
42742;SDS011;28397;44.552;-0.848;2022-07-12T10:13:09;1.35;;;1.00;;
42742;SDS011;28397;44.552;-0.848;2022-07-12T10:15:35;2.33;;;1.15;;
42742;SDS011;28397;44.552;-0.848;2022-07-12T10:18:02;3.08;;;1.08;;
42742;SDS011;28397;44.552;-0.848;2022-07-12T10:20:28;3.47;;;1.10;;
42742;SDS011;28397;44.552;-0.848;2022-07-12T10:22:55;2.38;;;1.15;;
42742;SDS011;28397;44.552;-0.848;2022-07-12T10:27:50;1.95;;;1.20;;
42742;SDS011;28397;44.552;-0.848;2022-07-12T10:30:17;4.13;;;1.40;;
42742;SDS011;28397;44.552;-0.848;2022-07-12T10:32:43;2.88;;;1.20;;
42742;SDS011;28397;44.552;-0.848;2022-07-12T10:35:14;3.40;;;1.20;;
42742;SDS011;28397;44.552;-0.848;2022-07-12T10:37:41;3.83;;;1.13;;
42742;SDS011;28397;44.552;-0.848;2022-07-12T10:42:36;7.05;;;1.15;;
42742;SDS011;28397;44.552;-0.848;2022-07-12T10:45:15;3.63;;;1.10;;
42742;SDS011;28397;44.552;-0.848;2022-07-12T10:47:57;2.60;;;1.17;;
42742;SDS011;28397;44.552;-0.848;2022-07-12T10:53:19;3.17;;;1.10;;
42742;SDS011;28397;44.552;-0.848;2022-07-12T10:58:31;2.72;;;1.20;;
42742;SDS011;28397;44.552;-0.848;2022-07-12T11:00:57;2.45;;;1.10;;
42742;SDS011;28397;44.552;-0.848;2022-07-12T11:03:30;3.00;;;1.10;;
42742;SDS011;28397;44.552;-0.848;2022-07-12T11:06:17;4.25;;;1.10;;
42742;SDS011;28397;44.552;-0.848;2022-07-12T11:11:19;3.35;;;1.17;;
42742;SDS011;28397;44.552;-0.848;2022-07-12T11:13:45;4.13;;;1.05;;
42742;SDS011;28397;44.552;-0.848;2022-07-12T11:16:10;4.88;;;1.00;;
42742;SDS011;28397;44.552;-0.848;2022-07-12T11:18:37;4.22;;;1.25;;
42742;SDS011;28397;44.552;-0.848;2022-07-12T11:21:03;2.72;;;1.30;;
42742;SDS011;28397;44.552;-0.848;2022-07-12T11:23:30;4.82;;;1.20;;
42742;SDS011;28397;44.552;-0.848;2022-07-12T11:25:56;2.35;;;1.00;;
42742;SDS011;28397;44.552;-0.848;2022-07-12T11:28:24;1.23;;;1.00;;
42742;SDS011;28397;44.552;-0.848;2022-07-12T11:30:53;2.92;;;1.00;;
42742;SDS011;28397;44.552;-0.848;2022-07-12T11:33:26;2.97;;;1.20;;
42742;SDS011;28397;44.552;-0.848;2022-07-12T11:35:57;3.55;;;1.10;;
42742;SDS011;28397;44.552;-0.848;2022-07-12T11:38:24;2.42;;;1.00;;
42742;SDS011;28397;44.552;-0.848;2022-07-12T11:40:57;4.20;;;0.95;;
42742;SDS011;28397;44.552;-0.848;2022-07-12T11:43:24;2.33;;;0.95;;
42742;SDS011;28397;44.552;-0.848;2022-07-12T11:45:51;1.42;;;1.00;;
42742;SDS011;28397;44.552;-0.848;2022-07-12T11:48:18;2.35;;;1.25;;
42742;SDS011;28397;44.552;-0.848;2022-07-12T11:50:44;2.33;;;1.00;;
42742;SDS011;28397;44.552;-0.848;2022-07-12T11:55:43;1.35;;;0.90;;
42742;SDS011;28397;44.552;-0.848;2022-07-12T11:58:11;4.80;;;1.35;;
42742;SDS011;28397;44.552;-0.848;2022-07-12T12:00:37;2.15;;;0.90;;
42742;SDS011;28397;44.552;-0.848;2022-07-12T12:03:03;2.28;;;1.00;;
42742;SDS011;28397;44.552;-0.848;2022-07-12T12:05:29;2.67;;;1.08;;
42742;SDS011;28397;44.552;-0.848;2022-07-12T12:07:56;2.80;;;0.90;;
42742;SDS011;28397;44.552;-0.848;2022-07-12T12:10:22;3.83;;;0.90;;
42742;SDS011;28397;44.552;-0.848;2022-07-12T12:12:48;4.47;;;0.90;;
42742;SDS011;28397;44.552;-0.848;2022-07-12T12:15:18;1.05;;;0.80;;
42742;SDS011;28397;44.552;-0.848;2022-07-12T12:18:05;4.22;;;0.80;;
42742;SDS011;28397;44.552;-0.848;2022-07-12T12:20:32;2.05;;;0.90;;
42742;SDS011;28397;44.552;-0.848;2022-07-12T12:22:59;4.15;;;0.90;;
42742;SDS011;28397;44.552;-0.848;2022-07-12T12:25:27;4.13;;;1.10;;
42742;SDS011;28397;44.552;-0.848;2022-07-12T12:30:25;2.45;;;0.80;;
42742;SDS011;28397;44.552;-0.848;2022-07-12T12:32:52;2.22;;;0.80;;
42742;SDS011;28397;44.552;-0.848;2022-07-12T12:35:32;2.28;;;0.70;;
42742;SDS011;28397;44.552;-0.848;2022-07-12T12:38:00;0.95;;;0.70;;
42742;SDS011;28397;44.552;-0.848;2022-07-12T12:40:29;1.45;;;0.80;;
42742;SDS011;28397;44.552;-0.848;2022-07-12T12:43:06;2.03;;;0.95;;
42742;SDS011;28397;44.552;-0.848;2022-07-12T12:45:32;2.05;;;0.80;;
42742;SDS011;28397;44.552;-0.848;2022-07-12T12:48:02;2.10;;;0.70;;
42742;SDS011;28397;44.552;-0.848;2022-07-12T12:50:37;0.80;;;0.80;;
42742;SDS011;28397;44.552;-0.848;2022-07-12T12:55:41;2.95;;;0.90;;
42742;SDS011;28397;44.552;-0.848;2022-07-12T12:58:08;1.70;;;0.90;;
42742;SDS011;28397;44.552;-0.848;2022-07-12T13:00:36;3.65;;;0.80;;
42742;SDS011;28397;44.552;-0.848;2022-07-12T13:03:04;1.80;;;0.70;;
42742;SDS011;28397;44.552;-0.848;2022-07-12T13:05:30;3.10;;;0.70;;
42742;SDS011;28397;44.552;-0.848;2022-07-12T13:07:56;4.47;;;0.73;;
42742;SDS011;28397;44.552;-0.848;2022-07-12T13:10:22;1.38;;;0.68;;
42742;SDS011;28397;44.552;-0.848;2022-07-12T13:12:49;1.75;;;0.90;;
42742;SDS011;28397;44.552;-0.848;2022-07-12T13:15:15;2.83;;;0.70;;
42742;SDS011;28397;44.552;-0.848;2022-07-12T13:17:42;2.42;;;0.77;;
42742;SDS011;28397;44.552;-0.848;2022-07-12T13:20:08;1.23;;;0.77;;
42742;SDS011;28397;44.552;-0.848;2022-07-12T13:22:34;2.72;;;0.70;;
42742;SDS011;28397;44.552;-0.848;2022-07-12T13:25:00;2.90;;;1.20;;
42742;SDS011;28397;44.552;-0.848;2022-07-12T13:27:26;1.48;;;0.77;;
42742;SDS011;28397;44.552;-0.848;2022-07-12T13:29:52;2.78;;;0.90;;
42742;SDS011;28397;44.552;-0.848;2022-07-12T13:32:18;0.93;;;0.75;;
42742;SDS011;28397;44.552;-0.848;2022-07-12T13:34:47;2.42;;;0.80;;
42742;SDS011;28397;44.552;-0.848;2022-07-12T13:37:14;3.80;;;1.10;;
42742;SDS011;28397;44.552;-0.848;2022-07-12T13:39:39;1.77;;;0.98;;
42742;SDS011;28397;44.552;-0.848;2022-07-12T13:42:24;2.30;;;0.70;;
42742;SDS011;28397;44.552;-0.848;2022-07-12T13:44:50;4.00;;;0.80;;
42742;SDS011;28397;44.552;-0.848;2022-07-12T13:47:16;2.38;;;0.80;;
42742;SDS011;28397;44.552;-0.848;2022-07-12T13:49:44;1.70;;;0.80;;
42742;SDS011;28397;44.552;-0.848;2022-07-12T13:52:10;2.33;;;0.82;;
42742;SDS011;28397;44.552;-0.848;2022-07-12T13:54:35;3.47;;;0.80;;
42742;SDS011;28397;44.552;-0.848;2022-07-12T13:57:01;3.08;;;0.80;;
42742;SDS011;28397;44.552;-0.848;2022-07-12T13:59:27;1.25;;;0.90;;
42742;SDS011;28397;44.552;-0.848;2022-07-12T14:01:53;1.83;;;0.80;;
42742;SDS011;28397;44.552;-0.848;2022-07-12T14:04:19;1.48;;;0.80;;
42742;SDS011;28397;44.552;-0.848;2022-07-12T14:06:44;1.50;;;0.80;;
42742;SDS011;28397;44.552;-0.848;2022-07-12T14:09:12;0.82;;;0.80;;
42742;SDS011;28397;44.552;-0.848;2022-07-12T14:11:38;2.70;;;0.80;;
42742;SDS011;28397;44.552;-0.848;2022-07-12T14:14:03;3.33;;;0.80;;
42742;SDS011;28397;44.552;-0.848;2022-07-12T14:16:29;0.80;;;0.80;;
42742;SDS011;28397;44.552;-0.848;2022-07-12T14:18:55;1.00;;;0.77;;
42742;SDS011;28397;44.552;-0.848;2022-07-12T14:21:21;2.10;;;0.90;;
42742;SDS011;28397;44.552;-0.848;2022-07-12T14:23:46;2.28;;;1.00;;
42742;SDS011;28397;44.552;-0.848;2022-07-12T14:26:12;3.05;;;0.80;;
42742;SDS011;28397;44.552;-0.848;2022-07-12T14:28:38;1.95;;;0.82;;
42742;SDS011;28397;44.552;-0.848;2022-07-12T14:31:03;3.35;;;0.70;;
42742;SDS011;28397;44.552;-0.848;2022-07-12T14:33:30;4.72;;;1.00;;
42742;SDS011;28397;44.552;-0.848;2022-07-12T14:35:55;1.75;;;0.70;;
42742;SDS011;28397;44.552;-0.848;2022-07-12T14:38:22;3.20;;;0.90;;
42742;SDS011;28397;44.552;-0.848;2022-07-12T14:40:48;1.13;;;0.80;;
42742;SDS011;28397;44.552;-0.848;2022-07-12T14:43:14;1.25;;;1.00;;
42742;SDS011;28397;44.552;-0.848;2022-07-12T14:45:41;2.58;;;0.80;;
42742;SDS011;28397;44.552;-0.848;2022-07-12T14:48:08;2.10;;;0.80;;
42742;SDS011;28397;44.552;-0.848;2022-07-12T14:50:34;1.55;;;0.80;;
42742;SDS011;28397;44.552;-0.848;2022-07-12T14:53:00;1.17;;;0.85;;
42742;SDS011;28397;44.552;-0.848;2022-07-12T14:55:26;2.35;;;0.90;;
42742;SDS011;28397;44.552;-0.848;2022-07-12T14:57:52;2.40;;;0.90;;
42742;SDS011;28397;44.552;-0.848;2022-07-12T15:00:18;1.55;;;0.90;;